createdAt,value
2023-05-12T00:02:40.233Z,13.62
2023-05-12T00:07:33.201Z,13.62
2023-05-12T00:12:28.141Z,13.59
2023-05-12T00:17:22.806Z,13.86
2023-05-12T00:22:17.938Z,13.80
2023-05-12T00:27:10.439Z,13.48
2023-05-12T00:32:03.257Z,13.60
2023-05-12T00:36:56.695Z,14.02
2023-05-12T00:41:59.550Z,13.48
2023-05-12T00:46:53.352Z,14.13
2023-05-12T00:51:47.543Z,13.54
2023-05-12T00:56:39.601Z,14.25
2023-05-12T01:01:34.500Z,14.31
2023-05-12T01:06:44.838Z,14.35
2023-05-12T01:11:36.927Z,13.85
2023-05-12T01:16:39.788Z,13.44
2023-05-12T01:21:34.961Z,14.17
2023-05-12T01:26:30.949Z,14.07
2023-05-12T01:31:24.561Z,13.96
2023-05-12T01:36:17.394Z,14.24
2023-05-12T01:41:10.290Z,13.69
2023-05-12T01:46:05.331Z,13.19
2023-05-12T01:51:02.025Z,13.36
2023-05-12T01:55:53.965Z,13.74
2023-05-12T02:00:46.974Z,13.18
2023-05-12T02:05:43.618Z,13.37
2023-05-12T02:10:36.221Z,13.55
2023-05-12T02:15:28.389Z,14.00
2023-05-12T02:20:20.766Z,13.84
2023-05-12T02:25:13.714Z,13.55
2023-05-12T02:30:07.452Z,13.84
2023-05-12T02:34:59.776Z,13.91
2023-05-12T02:39:53.063Z,13.11
2023-05-12T02:44:45.278Z,13.70
2023-05-12T02:49:37.583Z,13.94
2023-05-12T02:54:30.686Z,13.19
2023-05-12T02:59:22.900Z,13.82
2023-05-12T03:04:15.173Z,13.74
2023-05-12T03:09:09.821Z,13.73
2023-05-12T03:14:05.335Z,13.33
2023-05-12T03:18:59.502Z,13.43
2023-05-12T03:23:53.463Z,13.52
2023-05-12T03:28:45.480Z,13.69
2023-05-12T03:33:38.590Z,12.81
2023-05-12T03:38:31.244Z,11.60
2023-05-12T03:43:24.527Z,13.44
2023-05-12T03:48:20.058Z,13.63
2023-05-12T03:53:12.488Z,13.24
2023-05-12T03:58:04.597Z,12.93
2023-05-12T04:02:59.670Z,13.00
2023-05-12T04:07:56.170Z,12.20
2023-05-12T04:12:49.481Z,13.47
2023-05-12T04:17:42.039Z,12.36
2023-05-12T04:22:34.176Z,13.26
2023-05-12T04:27:35.370Z,13.08
2023-05-12T04:32:28.624Z,13.27
2023-05-12T04:37:22.320Z,12.93
2023-05-12T04:42:15.490Z,12.69
2023-05-12T04:47:10.440Z,12.37
2023-05-12T04:52:02.550Z,12.71
2023-05-12T04:56:57.167Z,13.20
2023-05-12T05:01:55.333Z,13.55
2023-05-12T05:06:52.421Z,13.34
2023-05-12T05:11:47.664Z,12.92
2023-05-12T05:16:40.136Z,13.48
2023-05-12T05:21:33.584Z,13.58
2023-05-12T05:26:30.466Z,13.88
2023-05-12T05:31:23.192Z,14.03
2023-05-12T05:36:17.085Z,14.21
2023-05-12T05:41:09.330Z,14.40
2023-05-12T05:46:01.651Z,14.59
2023-05-12T05:50:56.878Z,14.47
2023-05-12T05:55:51.763Z,13.97
2023-05-12T06:00:44.658Z,12.23
2023-05-12T06:05:38.743Z,14.28
2023-05-12T06:10:31.815Z,14.41
2023-05-12T06:15:24.941Z,13.81
2023-05-12T06:20:18.842Z,14.28
2023-05-12T06:25:11.151Z,14.95
2023-05-12T06:30:04.913Z,14.66
2023-05-12T06:34:57.175Z,15.50
2023-05-12T06:39:51.635Z,15.89
2023-05-12T06:44:45.837Z,15.81
2023-05-12T06:49:39.171Z,15.96
2023-05-12T06:54:33.245Z,16.06
2023-05-12T06:59:26.604Z,16.19
2023-05-12T07:04:18.712Z,17.11
2023-05-12T07:09:12.016Z,17.52
2023-05-12T07:14:04.014Z,16.97
2023-05-12T07:18:56.983Z,17.47
2023-05-12T07:23:49.718Z,16.73
2023-05-12T07:28:42.129Z,15.60
2023-05-12T07:33:36.989Z,15.75
2023-05-12T07:38:30.744Z,15.86
2023-05-12T07:43:25.216Z,16.28
2023-05-12T07:48:18.867Z,15.62
2023-05-12T07:53:14.405Z,15.75
2023-05-12T07:58:10.097Z,15.35
2023-05-12T08:03:02.601Z,16.38
2023-05-12T08:07:56.403Z,16.69
2023-05-12T08:12:48.781Z,17.23
2023-05-12T08:17:42.004Z,18.48
2023-05-12T08:22:34.784Z,19.59
2023-05-12T08:27:27.643Z,19.59
2023-05-12T08:32:22.079Z,18.98
2023-05-12T08:37:16.960Z,19.19
2023-05-12T08:42:18.949Z,18.52
2023-05-12T08:47:12.226Z,19.41
2023-05-12T08:52:08.068Z,20.84
2023-05-12T09:01:57.216Z,20.66
2023-05-12T09:06:49.762Z,19.20
2023-05-12T09:11:43.872Z,20.46
2023-05-12T09:16:51.057Z,21.97
2023-05-12T09:21:43.328Z,21.63
2023-05-12T09:26:54.106Z,21.31
2023-05-12T09:31:54.077Z,21.68
2023-05-12T09:36:59.519Z,21.35
2023-05-12T09:41:53.599Z,21.51
2023-05-12T09:46:48.140Z,21.70
2023-05-12T09:51:41.705Z,22.75
2023-05-12T09:56:38.871Z,22.12
2023-05-12T10:01:31.554Z,22.46
2023-05-12T10:06:39.421Z,21.90
2023-05-12T10:11:32.031Z,23.09
2023-05-12T10:16:25.097Z,24.04
2023-05-12T10:21:17.154Z,23.99
2023-05-12T10:26:10.722Z,22.85
2023-05-12T10:31:05.572Z,22.93
2023-05-12T10:35:59.143Z,22.44
2023-05-12T10:41:01.574Z,22.01
2023-05-12T10:46:30.859Z,22.30
2023-05-12T10:51:29.164Z,23.51
2023-05-12T10:56:25.187Z,22.67
2023-05-12T11:01:25.422Z,22.94
2023-05-12T11:06:19.965Z,23.39
2023-05-12T11:11:12.841Z,22.53
2023-05-12T11:16:06.594Z,22.43
2023-05-12T11:20:59.286Z,21.49
2023-05-12T11:25:51.566Z,21.60
2023-05-12T11:30:55.251Z,22.88
2023-05-12T11:35:48.392Z,23.41
2023-05-12T11:40:41.644Z,23.99
2023-05-12T11:45:35.386Z,22.92
2023-05-12T11:50:28.130Z,23.20
2023-05-12T11:55:23.640Z,23.01
2023-05-12T12:00:17.664Z,23.56
2023-05-12T12:05:19.657Z,24.76
2023-05-12T12:10:19.048Z,24.91
2023-05-12T12:15:13.878Z,25.24
2023-05-12T12:20:10.229Z,25.02
2023-05-12T12:25:04.950Z,22.87
2023-05-12T12:29:58.541Z,22.88
2023-05-12T12:34:52.185Z,23.30
2023-05-12T12:39:44.350Z,23.76
2023-05-12T12:44:37.667Z,23.51
2023-05-12T12:49:29.750Z,22.94
2023-05-12T12:54:21.836Z,23.19
2023-05-12T12:59:13.908Z,24.14
2023-05-12T13:04:06.972Z,24.57
2023-05-12T13:08:58.947Z,23.28
2023-05-12T13:13:52.692Z,24.86
2023-05-12T13:18:46.108Z,24.22
2023-05-12T13:23:39.208Z,24.17
2023-05-12T13:28:31.195Z,24.15
2023-05-12T13:33:25.008Z,23.20
2023-05-12T13:38:17.663Z,24.01
2023-05-12T13:43:10.207Z,22.72
2023-05-12T13:48:02.599Z,23.05
2023-05-12T13:52:56.211Z,22.89
2023-05-12T13:57:48.148Z,23.29
2023-05-12T14:02:41.046Z,23.26
2023-05-12T14:07:33.253Z,23.15
2023-05-12T14:12:28.434Z,23.10
2023-05-12T14:17:25.545Z,22.11
2023-05-12T14:23:00.007Z,22.14
2023-05-12T14:27:52.002Z,22.21
2023-05-12T14:32:46.551Z,21.29
2023-05-12T14:37:38.872Z,21.21
2023-05-12T14:42:33.332Z,21.44
2023-05-12T14:47:25.498Z,21.62
2023-05-12T14:52:18.753Z,21.42
2023-05-12T14:57:18.991Z,21.25
2023-05-12T15:02:11.731Z,22.06
2023-05-12T15:07:05.427Z,21.83
2023-05-12T15:11:58.209Z,21.60
2023-05-12T15:16:50.238Z,21.53
2023-05-12T15:21:42.770Z,21.69
2023-05-12T15:26:39.022Z,21.35
2023-05-12T15:31:33.148Z,21.56
2023-05-12T15:36:25.045Z,20.84
2023-05-12T15:41:17.219Z,21.07
2023-05-12T15:46:11.973Z,20.84
2023-05-12T15:51:06.920Z,21.94
2023-05-12T15:56:03.255Z,22.54
2023-05-12T16:00:58.396Z,22.61
2023-05-12T16:05:50.840Z,21.55
2023-05-12T16:10:43.884Z,21.60
2023-05-12T16:15:36.145Z,21.88
2023-05-12T16:20:29.264Z,21.65
2023-05-12T16:25:21.730Z,21.42
2023-05-12T16:30:14.813Z,21.80
2023-05-12T16:35:08.862Z,21.75
2023-05-12T16:40:01.700Z,22.02
2023-05-12T16:44:55.087Z,20.85
2023-05-12T16:49:48.753Z,21.10
2023-05-12T16:54:43.580Z,21.34
2023-05-12T16:59:40.186Z,20.95
2023-05-12T17:04:34.603Z,19.32
2023-05-12T17:09:27.484Z,18.97
2023-05-12T17:14:19.914Z,19.75
2023-05-12T17:19:22.452Z,19.61
2023-05-12T17:24:16.754Z,19.26
2023-05-12T17:29:11.623Z,18.89
2023-05-12T17:34:06.405Z,17.84
2023-05-12T17:38:58.693Z,16.48
2023-05-12T17:43:50.840Z,17.69
2023-05-12T17:48:43.642Z,17.34
2023-05-12T17:53:36.029Z,17.74
2023-05-12T17:58:29.310Z,17.78
2023-05-12T18:03:24.514Z,17.67
2023-05-12T18:08:19.878Z,17.78
2023-05-12T18:13:16.726Z,17.18
2023-05-12T18:18:10.928Z,17.58
2023-05-12T18:23:03.209Z,17.60
2023-05-12T18:27:55.287Z,17.11
2023-05-12T18:32:48.745Z,16.95
2023-05-12T18:37:40.884Z,17.54
2023-05-12T18:42:34.761Z,17.18
2023-05-12T18:47:26.767Z,17.33
2023-05-12T18:52:21.579Z,16.88
2023-05-12T18:57:14.252Z,16.63
2023-05-12T19:02:08.747Z,16.20
2023-05-12T19:07:00.936Z,16.10
2023-05-12T19:11:53.536Z,16.51
2023-05-12T19:16:46.915Z,16.63
2023-05-12T19:21:39.395Z,16.41
2023-05-12T19:26:32.285Z,16.37
2023-05-12T19:31:24.834Z,16.43
2023-05-12T19:36:18.565Z,16.14
2023-05-12T20:11:22.433Z,15.29
2023-05-12T20:16:15.278Z,15.22
2023-05-12T20:21:09.428Z,14.73
2023-05-12T20:26:02.244Z,15.23
2023-05-12T20:30:54.541Z,13.89
2023-05-12T20:35:48.527Z,14.83
2023-05-12T20:40:41.864Z,15.03
2023-05-12T20:45:34.407Z,14.38
2023-05-12T20:50:31.193Z,14.56
2023-05-12T20:55:23.459Z,14.21
2023-05-12T21:00:18.041Z,14.77
2023-05-12T21:05:11.596Z,12.25
2023-05-12T21:10:07.582Z,14.66
2023-05-12T21:15:00.201Z,14.93
2023-05-12T21:19:54.238Z,14.92
2023-05-12T21:24:46.748Z,14.58
2023-05-12T21:29:39.620Z,14.97
2023-05-12T21:34:33.925Z,14.57
2023-05-12T21:39:27.087Z,14.81
2023-05-12T21:44:19.870Z,14.73
2023-05-12T21:49:14.528Z,14.15
2023-05-12T21:54:12.676Z,14.68
2023-05-12T22:04:49.274Z,14.51
2023-05-12T22:09:44.896Z,14.60
2023-05-12T22:14:39.378Z,14.51
2023-05-12T22:33:15.063Z,14.50
2023-05-12T22:38:07.970Z,14.09
2023-05-12T22:43:00.204Z,14.05
2023-05-12T22:47:54.481Z,14.14
2023-05-12T22:52:48.255Z,14.34
2023-05-12T22:57:45.366Z,14.25
2023-05-12T23:02:54.540Z,12.64
2023-05-12T23:14:02.671Z,13.85
2023-05-12T23:18:55.680Z,13.79
2023-05-12T23:23:50.712Z,13.66
2023-05-12T23:28:43.649Z,13.86
2023-05-12T23:33:36.915Z,12.97
2023-05-12T23:38:37.861Z,14.01
2023-05-12T23:43:30.843Z,13.88
2023-05-12T23:48:23.193Z,14.04
2023-05-12T23:53:17.792Z,14.12
2023-05-12T23:58:13.783Z,13.65
